sensor_id;sensor_type;location;lat;lon;timestamp;pressure;altitude;pressure_sealevel;temperature;humidity
60101;BME280;45978;53.646;55.930;2022-12-16T00:01:30;101363.19;;;-8.04;63.95
60101;BME280;45978;53.646;55.930;2022-12-16T00:02:32;101358.75;;;-8.06;63.40
60101;BME280;45978;53.646;55.930;2022-12-16T00:03:33;101342.69;;;-8.17;64.06
60101;BME280;45978;53.646;55.930;2022-12-16T00:04:35;101327.72;;;-8.24;63.21
60101;BME280;45978;53.646;55.930;2022-12-16T00:05:38;101322.22;;;-8.30;62.85
60101;BME280;45978;53.646;55.930;2022-12-16T00:06:39;101355.88;;;-8.11;63.71
60101;BME280;45978;53.646;55.930;2022-12-16T00:07:40;101353.44;;;-8.09;63.38
60101;BME280;45978;53.646;55.930;2022-12-16T00:08:41;101352.66;;;-8.08;63.50
60101;BME280;45978;53.646;55.930;2022-12-16T00:09:43;101335.72;;;-8.20;62.56
60101;BME280;45978;53.646;55.930;2022-12-16T00:10:44;101341.03;;;-8.17;63.42
60101;BME280;45978;53.646;55.930;2022-12-16T00:11:55;101351.88;;;-8.07;63.81
60101;BME280;45978;53.646;55.930;2022-12-16T00:12:56;101349.78;;;-8.13;62.70
60101;BME280;45978;53.646;55.930;2022-12-16T00:13:57;101354.31;;;-8.09;63.71
60101;BME280;45978;53.646;55.930;2022-12-16T00:14:58;101347.34;;;-8.11;62.80
60101;BME280;45978;53.646;55.930;2022-12-16T00:16:06;101356.09;;;-8.08;63.46
60101;BME280;45978;53.646;55.930;2022-12-16T00:17:09;101349.00;;;-8.12;62.73
60101;BME280;45978;53.646;55.930;2022-12-16T00:18:12;101347.47;;;-8.10;63.30
60101;BME280;45978;53.646;55.930;2022-12-16T00:19:17;101352.66;;;-8.08;63.44
60101;BME280;45978;53.646;55.930;2022-12-16T00:20:19;101360.09;;;-8.11;63.27
60101;BME280;45978;53.646;55.930;2022-12-16T00:21:20;101357.22;;;-8.16;63.01
60101;BME280;45978;53.646;55.930;2022-12-16T00:22:22;101322.44;;;-8.39;63.58
60101;BME280;45978;53.646;55.930;2022-12-16T00:23:26;101360.53;;;-8.17;63.79
60101;BME280;45978;53.646;55.930;2022-12-16T00:24:28;101342.59;;;-8.30;62.79
60101;BME280;45978;53.646;55.930;2022-12-16T00:25:31;101349.78;;;-8.25;62.88
60101;BME280;45978;53.646;55.930;2022-12-16T00:26:32;101353.00;;;-8.27;63.60
60101;BME280;45978;53.646;55.930;2022-12-16T00:27:34;101353.78;;;-8.28;63.37
60101;BME280;45978;53.646;55.930;2022-12-16T00:28:37;101344.41;;;-8.41;63.37
60101;BME280;45978;53.646;55.930;2022-12-16T00:29:40;101342.84;;;-8.39;64.45
60101;BME280;45978;53.646;55.930;2022-12-16T00:30:43;101352.47;;;-8.35;64.22
60101;BME280;45978;53.646;55.930;2022-12-16T00:31:45;101356.88;;;-8.32;64.25
60101;BME280;45978;53.646;55.930;2022-12-16T00:32:47;101355.88;;;-8.34;63.84
60101;BME280;45978;53.646;55.930;2022-12-16T00:33:49;101341.97;;;-8.40;64.40
60101;BME280;45978;53.646;55.930;2022-12-16T00:34:50;101355.13;;;-8.33;63.76
60101;BME280;45978;53.646;55.930;2022-12-16T00:35:53;101366.19;;;-8.33;63.70
60101;BME280;45978;53.646;55.930;2022-12-16T00:36:55;101377.59;;;-8.28;64.56
60101;BME280;45978;53.646;55.930;2022-12-16T00:37:56;101368.28;;;-8.27;64.43
60101;BME280;45978;53.646;55.930;2022-12-16T00:38:59;101364.31;;;-8.36;64.88
60101;BME280;45978;53.646;55.930;2022-12-16T00:40:00;101378.50;;;-8.27;64.23
60101;BME280;45978;53.646;55.930;2022-12-16T00:41:01;101374.94;;;-8.29;65.00
60101;BME280;45978;53.646;55.930;2022-12-16T00:42:03;101376.25;;;-8.34;65.06
60101;BME280;45978;53.646;55.930;2022-12-16T00:43:04;101368.63;;;-8.34;64.56
60101;BME280;45978;53.646;55.930;2022-12-16T00:44:05;101366.97;;;-8.34;64.99
60101;BME280;45978;53.646;55.930;2022-12-16T00:45:07;101363.41;;;-8.36;64.88
60101;BME280;45978;53.646;55.930;2022-12-16T00:46:08;101360.66;;;-8.39;64.63
60101;BME280;45978;53.646;55.930;2022-12-16T00:47:10;101357.31;;;-8.38;64.20
60101;BME280;45978;53.646;55.930;2022-12-16T00:48:13;101363.41;;;-8.36;64.65
60101;BME280;45978;53.646;55.930;2022-12-16T00:49:14;101365.06;;;-8.37;64.50
60101;BME280;45978;53.646;55.930;2022-12-16T00:50:16;101355.28;;;-8.44;65.35
60101;BME280;45978;53.646;55.930;2022-12-16T00:51:18;101352.63;;;-8.45;65.44
60101;BME280;45978;53.646;55.930;2022-12-16T00:52:20;101360.47;;;-8.42;65.05
60101;BME280;45978;53.646;55.930;2022-12-16T00:53:22;101349.94;;;-8.47;65.19
60101;BME280;45978;53.646;55.930;2022-12-16T00:54:24;101360.38;;;-8.44;65.23
60101;BME280;45978;53.646;55.930;2022-12-16T00:55:25;101360.03;;;-8.48;64.54
60101;BME280;45978;53.646;55.930;2022-12-16T00:56:27;101357.16;;;-8.53;64.83
60101;BME280;45978;53.646;55.930;2022-12-16T00:57:28;101362.25;;;-8.53;65.17
60101;BME280;45978;53.646;55.930;2022-12-16T00:58:30;101360.47;;;-8.54;65.04
60101;BME280;45978;53.646;55.930;2022-12-16T00:59:39;101363.91;;;-8.53;64.78
60101;BME280;45978;53.646;55.930;2022-12-16T01:00:41;101368.88;;;-8.55;65.61
60101;BME280;45978;53.646;55.930;2022-12-16T01:01:43;101356.25;;;-8.65;65.48
60101;BME280;45978;53.646;55.930;2022-12-16T01:02:47;101366.78;;;-8.61;65.46
60101;BME280;45978;53.646;55.930;2022-12-16T01:03:49;101372.75;;;-8.60;65.23
60101;BME280;45978;53.646;55.930;2022-12-16T01:04:52;101358.56;;;-8.68;65.18
60101;BME280;45978;53.646;55.930;2022-12-16T01:05:53;101346.84;;;-8.78;64.82
60101;BME280;45978;53.646;55.930;2022-12-16T01:06:54;101350.50;;;-8.74;65.29
60101;BME280;45978;53.646;55.930;2022-12-16T01:07:56;101347.72;;;-8.78;64.91
60101;BME280;45978;53.646;55.930;2022-12-16T01:08:57;101360.00;;;-8.72;65.01
60101;BME280;45978;53.646;55.930;2022-12-16T01:09:59;101365.22;;;-8.70;65.56
60101;BME280;45978;53.646;55.930;2022-12-16T01:11:02;101345.94;;;-8.79;65.64
60101;BME280;45978;53.646;55.930;2022-12-16T01:12:05;101367.19;;;-8.78;65.24
60101;BME280;45978;53.646;55.930;2022-12-16T01:13:07;101369.28;;;-8.84;65.32
60101;BME280;45978;53.646;55.930;2022-12-16T01:14:08;101370.41;;;-8.81;66.02
60101;BME280;45978;53.646;55.930;2022-12-16T01:15:11;101363.75;;;-8.90;65.69
60101;BME280;45978;53.646;55.930;2022-12-16T01:16:14;101350.34;;;-9.00;65.91
60101;BME280;45978;53.646;55.930;2022-12-16T01:17:16;101338.59;;;-9.09;66.16
60101;BME280;45978;53.646;55.930;2022-12-16T01:18:17;101353.56;;;-9.02;66.01
60101;BME280;45978;53.646;55.930;2022-12-16T01:19:18;101356.84;;;-9.03;66.00
60101;BME280;45978;53.646;55.930;2022-12-16T01:20:20;101353.22;;;-9.07;66.32
60101;BME280;45978;53.646;55.930;2022-12-16T01:21:21;101355.28;;;-9.13;66.55
60101;BME280;45978;53.646;55.930;2022-12-16T01:22:30;101350.09;;;-9.14;66.48
60101;BME280;45978;53.646;55.930;2022-12-16T01:23:34;101343.53;;;-9.23;66.63
60101;BME280;45978;53.646;55.930;2022-12-16T01:24:36;101376.88;;;-9.08;67.11
60101;BME280;45978;53.646;55.930;2022-12-16T01:25:38;101346.06;;;-9.23;67.13
60101;BME280;45978;53.646;55.930;2022-12-16T01:26:39;101351.94;;;-9.24;67.20
60101;BME280;45978;53.646;55.930;2022-12-16T01:27:40;101363.78;;;-9.24;67.65
60101;BME280;45978;53.646;55.930;2022-12-16T01:28:46;101365.19;;;-9.28;67.29
60101;BME280;45978;53.646;55.930;2022-12-16T01:29:47;101358.66;;;-9.36;67.50
60101;BME280;45978;53.646;55.930;2022-12-16T01:30:54;101372.38;;;-9.34;67.73
60101;BME280;45978;53.646;55.930;2022-12-16T01:31:58;101368.59;;;-9.39;67.49
60101;BME280;45978;53.646;55.930;2022-12-16T01:33:01;101352.63;;;-9.48;67.98
60101;BME280;45978;53.646;55.930;2022-12-16T01:34:02;101362.16;;;-9.46;68.21
60101;BME280;45978;53.646;55.930;2022-12-16T01:35:04;101369.88;;;-9.44;68.13
60101;BME280;45978;53.646;55.930;2022-12-16T01:36:06;101376.50;;;-9.46;67.90
60101;BME280;45978;53.646;55.930;2022-12-16T01:37:12;101369.59;;;-9.59;68.27
60101;BME280;45978;53.646;55.930;2022-12-16T01:38:13;101372.91;;;-9.60;68.20
60101;BME280;45978;53.646;55.930;2022-12-16T01:39:15;101377.50;;;-9.66;68.14
60101;BME280;45978;53.646;55.930;2022-12-16T01:40:20;101337.88;;;-9.86;68.67
60101;BME280;45978;53.646;55.930;2022-12-16T01:41:22;101376.63;;;-9.67;68.57
60101;BME280;45978;53.646;55.930;2022-12-16T01:42:24;101367.53;;;-9.75;69.19
60101;BME280;45978;53.646;55.930;2022-12-16T01:43:31;101359.97;;;-9.85;68.73
60101;BME280;45978;53.646;55.930;2022-12-16T01:44:34;101356.31;;;-9.89;69.44
60101;BME280;45978;53.646;55.930;2022-12-16T01:45:37;101354.38;;;-9.91;69.13
60101;BME280;45978;53.646;55.930;2022-12-16T01:46:39;101343.28;;;-10.04;69.70
60101;BME280;45978;53.646;55.930;2022-12-16T01:47:42;101333.06;;;-10.16;69.20
60101;BME280;45978;53.646;55.930;2022-12-16T01:50:10;101362.06;;;-10.02;70.06
60101;BME280;45978;53.646;55.930;2022-12-16T01:51:22;101372.47;;;-9.99;69.91
60101;BME280;45978;53.646;55.930;2022-12-16T01:52:30;101376.69;;;-9.99;69.45
60101;BME280;45978;53.646;55.930;2022-12-16T01:53:42;101366.03;;;-10.05;69.75
60101;BME280;45978;53.646;55.930;2022-12-16T01:55:12;101383.44;;;-10.10;69.95
60101;BME280;45978;53.646;55.930;2022-12-16T01:56:18;101374.34;;;-10.18;69.50
60101;BME280;45978;53.646;55.930;2022-12-16T01:57:34;101382.47;;;-10.22;69.98
60101;BME280;45978;53.646;55.930;2022-12-16T01:58:40;101378.94;;;-10.24;69.48
60101;BME280;45978;53.646;55.930;2022-12-16T01:59:45;101388.09;;;-10.26;70.01
60101;BME280;45978;53.646;55.930;2022-12-16T02:00:49;101368.47;;;-10.39;70.39
60101;BME280;45978;53.646;55.930;2022-12-16T02:01:51;101374.94;;;-10.32;69.87
60101;BME280;45978;53.646;55.930;2022-12-16T02:02:52;101381.66;;;-10.33;70.22
60101;BME280;45978;53.646;55.930;2022-12-16T02:03:57;101371.88;;;-10.39;70.37
60101;BME280;45978;53.646;55.930;2022-12-16T02:05:01;101379.88;;;-10.34;69.97
60101;BME280;45978;53.646;55.930;2022-12-16T02:06:21;101369.63;;;-10.46;71.18
60101;BME280;45978;53.646;55.930;2022-12-16T02:07:24;101375.47;;;-10.37;71.14
60101;BME280;45978;53.646;55.930;2022-12-16T02:08:25;101368.25;;;-10.42;70.27
60101;BME280;45978;53.646;55.930;2022-12-16T02:09:27;101367.84;;;-10.47;71.17
60101;BME280;45978;53.646;55.930;2022-12-16T02:11:59;101365.22;;;-10.48;71.14
60101;BME280;45978;53.646;55.930;2022-12-16T02:13:39;101373.06;;;-10.45;71.53
60101;BME280;45978;53.646;55.930;2022-12-16T02:15:33;101366.63;;;-10.52;72.11
60101;BME280;45978;53.646;55.930;2022-12-16T02:16:49;101361.41;;;-10.53;71.52
60101;BME280;45978;53.646;55.930;2022-12-16T02:21:17;101365.34;;;-10.57;72.75
60101;BME280;45978;53.646;55.930;2022-12-16T02:24:58;101370.94;;;-10.61;72.32
60101;BME280;45978;53.646;55.930;2022-12-16T02:30:29;101368.91;;;-10.65;71.72
60101;BME280;45978;53.646;55.930;2022-12-16T02:31:51;101351.19;;;-10.76;73.07
60101;BME280;45978;53.646;55.930;2022-12-16T02:38:12;101374.38;;;-10.71;73.32
60101;BME280;45978;53.646;55.930;2022-12-16T02:39:47;101368.16;;;-10.74;72.74
60101;BME280;45978;53.646;55.930;2022-12-16T02:40:53;101368.03;;;-10.76;73.28
60101;BME280;45978;53.646;55.930;2022-12-16T02:45:52;101364.13;;;-10.93;73.16
60101;BME280;45978;53.646;55.930;2022-12-16T02:46:54;101358.69;;;-10.98;72.29
60101;BME280;45978;53.646;55.930;2022-12-16T02:47:58;101358.81;;;-11.06;72.73
60101;BME280;45978;53.646;55.930;2022-12-16T02:51:04;101366.19;;;-10.99;72.64
60101;BME280;45978;53.646;55.930;2022-12-16T02:51:47;101353.75;;;-11.06;73.28
60101;BME280;45978;53.646;55.930;2022-12-16T02:52:52;101358.44;;;-11.01;72.19
60101;BME280;45978;53.646;55.930;2022-12-16T02:53:55;101357.94;;;-11.07;73.48
60101;BME280;45978;53.646;55.930;2022-12-16T02:55:01;101355.63;;;-11.04;73.80
60101;BME280;45978;53.646;55.930;2022-12-16T03:00:13;101356.53;;;-11.03;73.22
60101;BME280;45978;53.646;55.930;2022-12-16T03:01:30;101360.97;;;-11.01;73.44
60101;BME280;45978;53.646;55.930;2022-12-16T03:04:05;101355.25;;;-10.98;72.90
60101;BME280;45978;53.646;55.930;2022-12-16T03:05:15;101345.75;;;-11.01;74.06
60101;BME280;45978;53.646;55.930;2022-12-16T03:06:21;101344.38;;;-10.97;73.39
60101;BME280;45978;53.646;55.930;2022-12-16T03:07:26;101351.59;;;-10.91;73.72
60101;BME280;45978;53.646;55.930;2022-12-16T03:08:34;101343.97;;;-10.91;73.61
60101;BME280;45978;53.646;55.930;2022-12-16T03:09:41;101331.81;;;-10.96;72.87
60101;BME280;45978;53.646;55.930;2022-12-16T03:10:46;101354.84;;;-10.82;73.53
60101;BME280;45978;53.646;55.930;2022-12-16T03:11:52;101320.53;;;-10.99;73.37
60101;BME280;45978;53.646;55.930;2022-12-16T03:12:55;101314.69;;;-10.98;73.31
60101;BME280;45978;53.646;55.930;2022-12-16T03:14:00;101352.19;;;-10.73;73.57
60101;BME280;45978;53.646;55.930;2022-12-16T03:15:06;101354.09;;;-10.71;72.81
60101;BME280;45978;53.646;55.930;2022-12-16T03:16:11;101333.44;;;-10.76;73.19
60101;BME280;45978;53.646;55.930;2022-12-16T03:17:14;101351.28;;;-10.64;73.63
60101;BME280;45978;53.646;55.930;2022-12-16T03:18:20;101343.28;;;-10.68;73.10
60101;BME280;45978;53.646;55.930;2022-12-16T03:19:25;101345.06;;;-10.67;73.70
60101;BME280;45978;53.646;55.930;2022-12-16T03:20:36;101350.63;;;-10.61;73.37
60101;BME280;45978;53.646;55.930;2022-12-16T03:22:00;101347.97;;;-10.63;72.97
60101;BME280;45978;53.646;55.930;2022-12-16T03:23:10;101341.53;;;-10.69;72.63
60101;BME280;45978;53.646;55.930;2022-12-16T03:24:16;101346.09;;;-10.65;73.24
60101;BME280;45978;53.646;55.930;2022-12-16T03:25:19;101344.31;;;-10.77;72.89
60101;BME280;45978;53.646;55.930;2022-12-16T03:30:24;101356.78;;;-11.00;73.03
60101;BME280;45978;53.646;55.930;2022-12-16T03:31:54;101343.84;;;-11.13;73.41
60101;BME280;45978;53.646;55.930;2022-12-16T03:33:03;101342.47;;;-11.20;73.01
60101;BME280;45978;53.646;55.930;2022-12-16T03:34:33;101355.50;;;-11.26;72.51
60101;BME280;45978;53.646;55.930;2022-12-16T03:35:43;101317.09;;;-11.51;72.95
60101;BME280;45978;53.646;55.930;2022-12-16T03:36:50;101347.53;;;-11.30;73.26
60101;BME280;45978;53.646;55.930;2022-12-16T03:37:56;101335.50;;;-11.33;72.74
60101;BME280;45978;53.646;55.930;2022-12-16T03:39:00;101334.59;;;-11.33;72.47
60101;BME280;45978;53.646;55.930;2022-12-16T03:40:06;101350.44;;;-11.26;73.08
60101;BME280;45978;53.646;55.930;2022-12-16T03:41:09;101351.47;;;-11.24;73.08
60101;BME280;45978;53.646;55.930;2022-12-16T03:42:15;101342.47;;;-11.30;72.84
60101;BME280;45978;53.646;55.930;2022-12-16T03:43:17;101346.16;;;-11.27;72.20
60101;BME280;45978;53.646;55.930;2022-12-16T03:44:20;101359.94;;;-11.23;72.84
60101;BME280;45978;53.646;55.930;2022-12-16T03:45:28;101359.06;;;-11.24;72.38
60101;BME280;45978;53.646;55.930;2022-12-16T03:46:31;101345.66;;;-11.33;73.09
60101;BME280;45978;53.646;55.930;2022-12-16T03:47:33;101353.34;;;-11.31;72.61
60101;BME280;45978;53.646;55.930;2022-12-16T03:48:35;101346.25;;;-11.36;72.26
60101;BME280;45978;53.646;55.930;2022-12-16T03:49:38;101341.97;;;-11.37;73.08
60101;BME280;45978;53.646;55.930;2022-12-16T03:50:42;101333.06;;;-11.42;73.30
60101;BME280;45978;53.646;55.930;2022-12-16T03:51:44;101358.94;;;-11.25;72.73
60101;BME280;45978;53.646;55.930;2022-12-16T03:52:45;101360.84;;;-11.23;72.89
60101;BME280;45978;53.646;55.930;2022-12-16T03:53:46;101359.34;;;-11.21;72.39
60101;BME280;45978;53.646;55.930;2022-12-16T03:54:49;101359.06;;;-11.24;72.70
60101;BME280;45978;53.646;55.930;2022-12-16T03:55:53;101344.13;;;-11.31;73.02
60101;BME280;45978;53.646;55.930;2022-12-16T03:56:55;101349.94;;;-11.32;73.00
60101;BME280;45978;53.646;55.930;2022-12-16T03:57:56;101352.59;;;-11.30;73.04
60101;BME280;45978;53.646;55.930;2022-12-16T03:58:57;101336.91;;;-11.37;72.67
60101;BME280;45978;53.646;55.930;2022-12-16T03:59:58;101349.81;;;-11.33;72.72
60101;BME280;45978;53.646;55.930;2022-12-16T04:01:00;101313.19;;;-11.58;72.76
60101;BME280;45978;53.646;55.930;2022-12-16T04:02:02;101346.91;;;-11.38;72.32
60101;BME280;45978;53.646;55.930;2022-12-16T04:03:03;101328.16;;;-11.50;73.48
60101;BME280;45978;53.646;55.930;2022-12-16T04:04:06;101360.72;;;-11.34;72.73
60101;BME280;45978;53.646;55.930;2022-12-16T04:05:13;101341.06;;;-11.47;73.13
60101;BME280;45978;53.646;55.930;2022-12-16T04:06:14;101321.28;;;-11.62;72.47
60101;BME280;45978;53.646;55.930;2022-12-16T04:07:18;101361.97;;;-11.40;72.93
60101;BME280;45978;53.646;55.930;2022-12-16T04:08:24;101338.00;;;-11.53;72.47
60101;BME280;45978;53.646;55.930;2022-12-16T04:09:25;101350.44;;;-11.46;72.65
60101;BME280;45978;53.646;55.930;2022-12-16T04:10:27;101353.72;;;-11.47;72.34
60101;BME280;45978;53.646;55.930;2022-12-16T04:11:46;101325.56;;;-11.71;72.98
60101;BME280;45978;53.646;55.930;2022-12-16T04:13:08;101365.25;;;-11.51;72.50
60101;BME280;45978;53.646;55.930;2022-12-16T04:14:28;101348.13;;;-11.64;73.60
60101;BME280;45978;53.646;55.930;2022-12-16T04:15:48;101349.03;;;-11.63;73.45
60101;BME280;45978;53.646;55.930;2022-12-16T04:17:09;101357.63;;;-11.51;72.95
60101;BME280;45978;53.646;55.930;2022-12-16T04:18:31;101374.50;;;-11.41;73.58
60101;BME280;45978;53.646;55.930;2022-12-16T04:19:52;101368.06;;;-11.48;73.53
60101;BME280;45978;53.646;55.930;2022-12-16T04:21:11;101366.25;;;-11.49;72.73
60101;BME280;45978;53.646;55.930;2022-12-16T04:22:35;101381.59;;;-11.47;72.70
60101;BME280;45978;53.646;55.930;2022-12-16T04:23:57;101382.63;;;-11.45;73.49
60101;BME280;45978;53.646;55.930;2022-12-16T04:25:24;101382.38;;;-11.48;73.19
60101;BME280;45978;53.646;55.930;2022-12-16T04:26:29;101377.69;;;-11.54;73.54
60101;BME280;45978;53.646;55.930;2022-12-16T04:27:31;101374.38;;;-11.53;73.82
60101;BME280;45978;53.646;55.930;2022-12-16T04:28:33;101383.53;;;-11.45;73.18
60101;BME280;45978;53.646;55.930;2022-12-16T04:29:34;101346.09;;;-11.68;73.37
60101;BME280;45978;53.646;55.930;2022-12-16T04:30:55;101362.97;;;-11.68;73.02
60101;BME280;45978;53.646;55.930;2022-12-16T04:31:57;101389.31;;;-11.56;73.21
60101;BME280;45978;53.646;55.930;2022-12-16T04:33:03;101356.22;;;-11.78;72.71
60101;BME280;45978;53.646;55.930;2022-12-16T04:34:24;101392.09;;;-11.63;72.41
60101;BME280;45978;53.646;55.930;2022-12-16T04:35:26;101392.22;;;-11.62;73.19
60101;BME280;45978;53.646;55.930;2022-12-16T04:36:46;101393.59;;;-11.65;73.58
60101;BME280;45978;53.646;55.930;2022-12-16T04:38:05;101393.09;;;-11.71;72.55
60101;BME280;45978;53.646;55.930;2022-12-16T04:39:29;101399.66;;;-11.73;73.34
60101;BME280;45978;53.646;55.930;2022-12-16T04:40:50;101392.69;;;-11.76;72.33
60101;BME280;45978;53.646;55.930;2022-12-16T04:42:09;101372.38;;;-11.86;72.80
60101;BME280;45978;53.646;55.930;2022-12-16T04:43:29;101406.03;;;-11.68;72.31
60101;BME280;45978;53.646;55.930;2022-12-16T04:44:49;101398.88;;;-11.72;72.73
60101;BME280;45978;53.646;55.930;2022-12-16T04:46:09;101399.81;;;-11.72;72.94
60101;BME280;45978;53.646;55.930;2022-12-16T04:47:30;101396.34;;;-11.72;72.38
60101;BME280;45978;53.646;55.930;2022-12-16T04:48:50;101390.69;;;-11.70;72.15
60101;BME280;45978;53.646;55.930;2022-12-16T04:50:36;101410.63;;;-11.54;72.86
60101;BME280;45978;53.646;55.930;2022-12-16T04:51:57;101387.16;;;-11.62;72.07
60101;BME280;45978;53.646;55.930;2022-12-16T04:53:16;101359.28;;;-11.72;71.25
60101;BME280;45978;53.646;55.930;2022-12-16T04:54:37;101375.50;;;-11.60;71.60
60101;BME280;45978;53.646;55.930;2022-12-16T04:55:58;101365.88;;;-11.64;72.29
60101;BME280;45978;53.646;55.930;2022-12-16T04:57:18;101357.63;;;-11.61;72.55
60101;BME280;45978;53.646;55.930;2022-12-16T04:58:38;101369.44;;;-11.51;72.01
60101;BME280;45978;53.646;55.930;2022-12-16T04:59:59;101360.94;;;-11.62;72.33
60101;BME280;45978;53.646;55.930;2022-12-16T05:01:20;101359.81;;;-11.56;71.13
60101;BME280;45978;53.646;55.930;2022-12-16T05:02:41;101379.06;;;-11.47;71.75
60101;BME280;45978;53.646;55.930;2022-12-16T05:04:02;101371.72;;;-11.54;70.86
60101;BME280;45978;53.646;55.930;2022-12-16T05:05:22;101375.00;;;-11.56;70.58
60101;BME280;45978;53.646;55.930;2022-12-16T05:06:42;101395.44;;;-11.44;71.51
60101;BME280;45978;53.646;55.930;2022-12-16T05:08:02;101380.44;;;-11.51;70.84
60101;BME280;45978;53.646;55.930;2022-12-16T05:09:23;101406.34;;;-11.45;71.11
60101;BME280;45978;53.646;55.930;2022-12-16T05:10:43;101399.47;;;-11.46;71.47
60101;BME280;45978;53.646;55.930;2022-12-16T05:12:03;101392.50;;;-11.48;70.84
60101;BME280;45978;53.646;55.930;2022-12-16T05:13:22;101385.91;;;-11.57;71.46
60101;BME280;45978;53.646;55.930;2022-12-16T05:14:42;101353.72;;;-11.68;71.79
60101;BME280;45978;53.646;55.930;2022-12-16T05:16:02;101359.53;;;-11.59;71.66
60101;BME280;45978;53.646;55.930;2022-12-16T05:17:22;101350.69;;;-11.53;71.94
60101;BME280;45978;53.646;55.930;2022-12-16T05:18:41;101379.63;;;-11.31;71.34
60101;BME280;45978;53.646;55.930;2022-12-16T05:20:02;101378.09;;;-11.29;70.88
60101;BME280;45978;53.646;55.930;2022-12-16T05:21:21;101390.91;;;-11.17;71.41
60101;BME280;45978;53.646;55.930;2022-12-16T05:22:42;101386.22;;;-11.12;71.65
60101;BME280;45978;53.646;55.930;2022-12-16T05:24:02;101391.28;;;-11.02;71.48
60101;BME280;45978;53.646;55.930;2022-12-16T05:25:23;101390.75;;;-10.98;71.57
60101;BME280;45978;53.646;55.930;2022-12-16T05:26:42;101375.19;;;-11.03;71.17
60101;BME280;45978;53.646;55.930;2022-12-16T05:28:02;101389.63;;;-10.91;71.68
60101;BME280;45978;53.646;55.930;2022-12-16T05:29:22;101390.13;;;-10.85;70.86
60101;BME280;45978;53.646;55.930;2022-12-16T05:30:43;101367.03;;;-10.88;71.67
60101;BME280;45978;53.646;55.930;2022-12-16T05:32:06;101385.44;;;-10.81;71.24
60101;BME280;45978;53.646;55.930;2022-12-16T05:33:26;101356.16;;;-10.87;71.50
60101;BME280;45978;53.646;55.930;2022-12-16T05:34:48;101395.81;;;-10.67;70.47
60101;BME280;45978;53.646;55.930;2022-12-16T05:36:09;101371.09;;;-10.70;70.62
60101;BME280;45978;53.646;55.930;2022-12-16T05:37:33;101387.19;;;-10.59;71.10
60101;BME280;45978;53.646;55.930;2022-12-16T05:38:53;101395.41;;;-10.51;71.24
60101;BME280;45978;53.646;55.930;2022-12-16T05:40:13;101399.97;;;-10.47;70.74
60101;BME280;45978;53.646;55.930;2022-12-16T05:41:33;101375.75;;;-10.54;70.38
60101;BME280;45978;53.646;55.930;2022-12-16T05:42:53;101396.25;;;-10.41;69.77
60101;BME280;45978;53.646;55.930;2022-12-16T05:44:13;101379.88;;;-10.34;69.76
60101;BME280;45978;53.646;55.930;2022-12-16T05:45:33;101375.69;;;-10.33;70.01
60101;BME280;45978;53.646;55.930;2022-12-16T05:46:54;101389.31;;;-10.21;69.96
60101;BME280;45978;53.646;55.930;2022-12-16T05:48:14;101401.75;;;-10.14;69.00
60101;BME280;45978;53.646;55.930;2022-12-16T05:49:33;101368.25;;;-10.20;69.13
60101;BME280;45978;53.646;55.930;2022-12-16T05:50:53;101378.25;;;-10.11;68.71
60101;BME280;45978;53.646;55.930;2022-12-16T05:52:16;101400.25;;;-9.90;69.12
60101;BME280;45978;53.646;55.930;2022-12-16T05:53:38;101393.53;;;-9.89;69.02
60101;BME280;45978;53.646;55.930;2022-12-16T05:54:57;101385.47;;;-9.84;68.75
60101;BME280;45978;53.646;55.930;2022-12-16T05:56:17;101388.63;;;-9.76;68.49
60101;BME280;45978;53.646;55.930;2022-12-16T05:57:39;101399.44;;;-9.57;67.91
60101;BME280;45978;53.646;55.930;2022-12-16T05:59:00;101379.44;;;-9.64;68.56
60101;BME280;45978;53.646;55.930;2022-12-16T06:00:20;101398.16;;;-9.51;68.21
60101;BME280;45978;53.646;55.930;2022-12-16T06:01:41;101374.81;;;-9.58;67.97
60101;BME280;45978;53.646;55.930;2022-12-16T06:03:03;101398.63;;;-9.45;68.22
60101;BME280;45978;53.646;55.930;2022-12-16T06:04:26;101400.97;;;-9.37;67.71
60101;BME280;45978;53.646;55.930;2022-12-16T06:05:46;101378.34;;;-9.33;67.64
60101;BME280;45978;53.646;55.930;2022-12-16T06:07:07;101378.34;;;-9.33;67.30
60101;BME280;45978;53.646;55.930;2022-12-16T06:08:27;101383.47;;;-9.22;67.38
60101;BME280;45978;53.646;55.930;2022-12-16T06:09:48;101397.81;;;-9.00;67.13
60101;BME280;45978;53.646;55.930;2022-12-16T06:11:08;101416.94;;;-8.93;66.95
60101;BME280;45978;53.646;55.930;2022-12-16T06:12:29;101410.06;;;-9.06;67.01
60101;BME280;45978;53.646;55.930;2022-12-16T06:13:50;101413.19;;;-8.99;67.00
60101;BME280;45978;53.646;55.930;2022-12-16T06:15:09;101413.22;;;-8.87;66.87
60101;BME280;45978;53.646;55.930;2022-12-16T06:16:29;101397.72;;;-8.90;66.57
60101;BME280;45978;53.646;55.930;2022-12-16T06:17:49;101393.53;;;-8.78;66.56
60101;BME280;45978;53.646;55.930;2022-12-16T06:19:12;101400.63;;;-8.73;66.69
60101;BME280;45978;53.646;55.930;2022-12-16T06:20:36;101406.50;;;-8.63;67.05
60101;BME280;45978;53.646;55.930;2022-12-16T06:21:55;101400.56;;;-8.51;66.88
60101;BME280;45978;53.646;55.930;2022-12-16T06:23:17;101400.97;;;-8.33;66.67
60101;BME280;45978;53.646;55.930;2022-12-16T06:24:37;101390.56;;;-8.25;66.57
60101;BME280;45978;53.646;55.930;2022-12-16T06:25:58;101380.25;;;-8.26;66.92
60101;BME280;45978;53.646;55.930;2022-12-16T06:27:18;101381.16;;;-8.14;66.62
60101;BME280;45978;53.646;55.930;2022-12-16T06:28:38;101362.28;;;-8.04;66.83
60101;BME280;45978;53.646;55.930;2022-12-16T06:29:58;101391.38;;;-7.77;66.85
60101;BME280;45978;53.646;55.930;2022-12-16T06:31:28;101385.75;;;-7.73;66.43
60101;BME280;45978;53.646;55.930;2022-12-16T06:32:49;101382.25;;;-7.62;65.88
60101;BME280;45978;53.646;55.930;2022-12-16T06:34:09;101384.91;;;-7.60;65.59